ポートルイス の空港の天気 - METARとTAF

サー・シウサガル・ラングラーム国際空港 ( FIMP / MRU ) - モーリシャス ポートルイス
飛行場実況気象(Metar)
観測時間06/17 23:00 MUT (06/17 19:00 UTC)
風向・風速東南東 8m/s
視程10km以上
天気現象
少しの雲 雲底高度 520m
全天の4割程度の雲 雲底高度 1520m
気温23℃
湿度61%
気圧1023hPa
METARFIMP 171900Z 11015KT 9999 FEW017 SCT050 23/15 Q1023
過去の天気等 Google飛行場航空写真 Wunderground天気予報

過去48時間のMETAR

飛行場予報(TAF)
発表時間: 6/17 21:30 MUT (6/17 17:30 UTC)
予報対象時間: 17日22時 MUT ~ 19日4時 MUT
風向・風速南東 6m/s 瞬間風速 11m/s
視程10km以上
全天の4割程度の雲 雲底高度 550m
17日22時 MUT ~ 18日1時 MUT に一時的に
視程7000m
天気現象弱いしゅう雨
少しの雲 雲底高度 300m
全天の8割程度の雲 雲底高度 490m
TAF FIMP 171730Z 1718/1900 13012G22KT 9999 SCT018
TEMPO 1718/1721 7000 -SHRA FEW010 BKN016